Mahanoy City, Pennsylvania
Current Conditions -  °F | °C
As of 11:55 PM on Thursday 30 Oct 2014 (Local Time) from KHZL Reporting Station
Clear Clear  
Wind Chill: 32°   Ceiling: Unl
Heat Index: 32°   Visibility: 10mi
Dew Point: 32°   Wind: 3mph
Humidity: 100%   Direction: 340°NNW
Pressure: 30.03"   Gusts: NA
Location:  40.81°N, 76.14°W
Report Text: KHZL 310355Z AUTO 34003KT 10SM CLR 00/00 A3003 RMK AO2
Loading
Personal Weather Stations






























Interactive Weather Map
Tropical Storm Tracking
New forecast layout! Learn more

10-Day Weather Forecast

Advertisements
Track Severe Weather on mobile